Time;durP1;ratioP1;P1;durP2;ratioP2;P2;SDS_P1;SDS_P2;PMS_P1;PMS_P2;Temp;Humidity;BMP_temperature;BMP_pressure;BME280_temperature;BME280_humidity;BME280_pressure;Samples;Min_cycle;Max_cycle;Signal;HPM_P1;HPM_P2
2021/12/22 00:00:36;;;;;;;53.53;25.97;;;-5.60;99.90;;;;;;5034662;28;20052;-81
2021/12/22 00:03:04;;;;;;;49.97;25.93;;;-5.60;99.90;;;;;;4965567;28;20026;-82
2021/12/22 00:05:31;;;;;;;53.60;27.23;;;-5.60;99.90;;;;;;4973325;28;20051;-81
2021/12/22 00:07:58;;;;;;;55.43;26.47;;;-5.60;99.90;;;;;;5025995;28;20029;-81
2021/12/22 00:10:24;;;;;;;57.13;26.63;;;-5.60;99.90;;;;;;4962930;28;20015;-81
2021/12/22 00:12:50;;;;;;;56.83;28.63;;;-5.60;99.90;;;;;;4965508;28;20428;-81
2021/12/22 00:15:17;;;;;;;56.77;26.23;;;-5.60;99.90;;;;;;4956654;28;20044;-81
2021/12/22 00:17:43;;;;;;;51.87;27.07;;;-5.60;99.90;;;;;;4965654;28;20042;-81
2021/12/22 00:20:10;;;;;;;49.53;26.67;;;-5.70;99.90;;;;;;4961355;28;20023;-81
2021/12/22 00:22:36;;;;;;;55.77;28.23;;;-5.70;99.90;;;;;;4959414;28;20472;-81
2021/12/22 00:25:03;;;;;;;56.23;27.03;;;-5.70;99.90;;;;;;5036101;28;20034;-81
2021/12/22 00:27:28;;;;;;;54.10;27.63;;;-5.70;99.90;;;;;;4962782;28;20025;-81
2021/12/22 00:29:54;;;;;;;54.80;26.07;;;-5.70;99.90;;;;;;4964981;28;20110;-81
2021/12/22 00:32:21;;;;;;;53.53;27.03;;;-5.70;99.90;;;;;;4961594;28;20088;-81
2021/12/22 00:34:51;;;;;;;52.07;25.83;;;-5.70;99.90;;;;;;4960379;28;20019;-81
2021/12/22 00:37:26;;;;;;;58.00;28.33;;;-5.70;99.90;;;;;;4964308;28;20034;-81
2021/12/22 00:39:53;;;;;;;49.87;26.50;;;-5.80;99.90;;;;;;4958491;28;20507;-81
2021/12/22 00:42:19;;;;;;;48.80;25.27;;;-5.80;99.90;;;;;;5033948;28;20270;-80
2021/12/22 00:44:47;;;;;;;48.70;25.13;;;-5.80;99.90;;;;;;4957448;28;20031;-80
2021/12/22 00:47:13;;;;;;;51.47;24.10;;;-5.80;99.90;;;;;;4960079;28;20023;-83
2021/12/22 00:49:39;;;;;;;57.40;27.43;;;-5.80;99.90;;;;;;4960596;28;20107;-83
2021/12/22 00:52:05;;;;;;;48.80;24.33;;;-5.80;99.90;;;;;;4967297;28;20058;-83
2021/12/22 00:54:31;;;;;;;49.20;24.53;;;-5.90;99.90;;;;;;4960681;28;20051;-83
2021/12/22 00:57:03;;;;;;;48.70;24.13;;;-5.90;99.90;;;;;;5026831;28;20027;-83
2021/12/22 00:59:29;;;;;;;50.73;23.57;;;-5.90;99.90;;;;;;4960957;28;20115;-83
2021/12/22 01:01:54;;;;;;;53.10;25.20;;;-5.90;99.90;;;;;;4963680;28;20022;-82
2021/12/22 01:04:20;;;;;;;46.27;24.47;;;-5.90;99.90;;;;;;4973315;28;20492;-82
2021/12/22 01:06:46;;;;;;;52.40;24.93;;;-5.90;99.90;;;;;;4970975;28;20035;-82
2021/12/22 01:09:12;;;;;;;50.57;26.10;;;-6.00;99.90;;;;;;4961311;28;20038;-83
2021/12/22 01:11:37;;;;;;;50.43;24.63;;;-6.00;99.90;;;;;;4976844;28;20035;-82
2021/12/22 01:14:04;;;;;;;50.90;25.23;;;-6.00;99.90;;;;;;4965775;28;20023;-82
2021/12/22 01:16:30;;;;;;;48.57;24.43;;;-6.00;99.90;;;;;;4971428;28;20051;-83
2021/12/22 01:18:59;;;;;;;46.67;24.20;;;-6.10;99.90;;;;;;4967816;28;20462;-81
2021/12/22 01:21:36;;;;;;;49.87;24.70;;;-6.10;99.90;;;;;;5033732;28;20039;-83
2021/12/22 01:24:13;;;;;;;47.50;23.77;;;-6.10;99.90;;;;;;5032174;28;20032;-82
2021/12/22 01:26:44;;;;;;;47.50;23.37;;;-6.10;99.90;;;;;;4970689;28;20058;-83
2021/12/22 01:29:10;;;;;;;50.30;24.17;;;-6.20;99.90;;;;;;4965856;28;20029;-82
2021/12/22 01:31:36;;;;;;;50.53;24.87;;;-6.20;99.90;;;;;;4967253;28;20430;-82
2021/12/22 01:34:01;;;;;;;46.57;23.33;;;-6.20;99.90;;;;;;4964702;28;20026;-82
2021/12/22 01:36:27;;;;;;;48.00;25.07;;;-6.20;99.90;;;;;;5023935;28;20130;-82
2021/12/22 01:38:52;;;;;;;42.70;23.73;;;-6.30;99.90;;;;;;4962821;28;20428;-81
2021/12/22 01:41:18;;;;;;;39.50;20.87;;;-6.30;99.90;;;;;;4961740;28;20031;-81
2021/12/22 01:43:45;;;;;;;48.70;23.70;;;-6.30;99.90;;;;;;4965435;28;20161;-81
2021/12/22 01:49:11;;;;;;;43.25;22.90;;;-6.30;99.90;;;;;;4966976;28;20559;-81
2021/12/22 01:51:55;;;;;;;46.43;22.03;;;-6.30;99.90;;;;;;4965474;28;20042;-80
2021/12/22 01:54:21;;;;;;;48.07;22.60;;;-6.30;99.90;;;;;;5026970;28;20035;-81
2021/12/22 01:56:52;;;;;;;45.07;22.70;;;-6.40;99.90;;;;;;4971209;28;20031;-81
2021/12/22 01:59:22;;;;;;;50.57;23.57;;;-6.40;99.90;;;;;;4967534;28;20023;-81
2021/12/22 02:01:48;;;;;;;49.17;24.00;;;-6.40;99.90;;;;;;4959004;28;20029;-80
2021/12/22 02:04:14;;;;;;;50.40;24.20;;;-6.40;99.90;;;;;;5030538;28;20027;-80
2021/12/22 02:06:42;;;;;;;49.93;24.77;;;-6.40;99.90;;;;;;4963483;28;20030;-81
2021/12/22 02:09:14;;;;;;;51.20;25.27;;;-6.40;99.90;;;;;;4966069;28;20114;-81
2021/12/22 02:11:39;;;;;;;50.10;23.57;;;-6.40;99.90;;;;;;4965179;28;20106;-80
2021/12/22 02:14:06;;;;;;;48.67;24.73;;;-6.40;99.90;;;;;;4961826;28;20130;-80
2021/12/22 02:16:37;;;;;;;41.63;24.00;;;-6.40;99.90;;;;;;4969015;28;20072;-80
2021/12/22 02:19:05;;;;;;;45.27;23.87;;;-6.50;99.90;;;;;;4961588;28;20031;-80
2021/12/22 02:21:36;;;;;;;52.80;25.30;;;-6.50;99.90;;;;;;4963964;28;20098;-80
2021/12/22 02:24:02;;;;;;;43.10;21.97;;;-6.50;99.90;;;;;;4963331;28;20027;-80
2021/12/22 02:26:36;;;;;;;45.10;23.37;;;-6.50;99.90;;;;;;4966612;28;20114;-80
2021/12/22 02:29:06;;;;;;;46.57;23.30;;;-6.50;99.90;;;;;;4961661;28;20167;-80
2021/12/22 02:31:43;;;;;;;47.73;23.43;;;-6.50;99.90;;;;;;4960952;28;20028;-80
2021/12/22 02:34:14;;;;;;;54.70;25.77;;;-6.60;99.90;;;;;;4965787;28;20380;-80
2021/12/22 02:36:40;;;;;;;47.30;24.40;;;-6.60;99.90;;;;;;4970635;28;20036;-81
2021/12/22 02:39:07;;;;;;;49.03;24.60;;;-6.60;99.90;;;;;;4965855;28;20027;-81
2021/12/22 02:41:36;;;;;;;53.23;26.43;;;-6.60;99.90;;;;;;4965045;28;20026;-80
2021/12/22 02:44:03;;;;;;;51.70;26.00;;;-6.60;99.90;;;;;;4955688;28;20084;-80
2021/12/22 02:46:31;;;;;;;45.00;23.87;;;-6.70;99.90;;;;;;4965773;28;20084;-81
2021/12/22 02:48:59;;;;;;;49.63;25.23;;;-6.70;99.90;;;;;;4966709;28;20019;-81
2021/12/22 02:51:27;;;;;;;52.67;26.27;;;-6.80;99.90;;;;;;4967289;28;20026;-81
2021/12/22 02:56:35;;;;;;;54.70;27.93;;;-6.80;99.90;;;;;;4966175;28;20037;-81
2021/12/22 02:59:51;;;;;;;48.67;24.97;;;-6.90;99.90;;;;;;4959844;28;20027;-81
2021/12/22 03:04:43;;;;;;;42.50;22.70;;;-6.90;99.90;;;;;;4958147;28;20034;-81
2021/12/22 03:07:16;;;;;;;46.20;24.03;;;-6.90;99.90;;;;;;4966343;28;20019;-81
2021/12/22 03:09:43;;;;;;;42.17;23.67;;;-6.90;99.90;;;;;;4965020;28;20390;-81
2021/12/22 03:12:12;;;;;;;41.33;24.57;;;-7.00;99.90;;;;;;4970216;28;20114;-81
2021/12/22 03:14:38;;;;;;;44.13;23.80;;;-7.00;99.90;;;;;;4978079;28;20608;-81
2021/12/22 03:17:04;;;;;;;41.87;24.10;;;-7.00;99.90;;;;;;4976208;28;20057;-81
2021/12/22 03:19:32;;;;;;;40.00;23.03;;;-7.00;99.90;;;;;;5034536;28;20032;-81
2021/12/22 03:22:04;;;;;;;43.10;22.77;;;-7.00;99.90;;;;;;4964347;28;20041;-81
2021/12/22 03:24:33;;;;;;;42.17;22.43;;;-7.10;99.90;;;;;;5025844;28;20088;-81
2021/12/22 03:27:02;;;;;;;35.70;19.23;;;-7.10;99.90;;;;;;4966355;28;20030;-81
2021/12/22 03:29:29;;;;;;;40.03;21.83;;;-7.10;99.90;;;;;;4968710;28;20028;-81
2021/12/22 03:31:55;;;;;;;40.27;22.17;;;-7.10;99.90;;;;;;4980830;28;20023;-81
2021/12/22 03:34:21;;;;;;;37.57;21.57;;;-7.10;99.90;;;;;;4957435;28;21143;-78
2021/12/22 03:36:47;;;;;;;41.43;21.43;;;-7.10;99.90;;;;;;4958616;28;20545;-77
2021/12/22 03:39:14;;;;;;;36.97;20.87;;;-7.20;99.90;;;;;;4959175;28;20031;-78
2021/12/22 03:41:41;;;;;;;39.87;21.43;;;-7.20;99.90;;;;;;4959665;28;20487;-77
2021/12/22 03:44:08;;;;;;;38.77;20.07;;;-7.20;99.90;;;;;;4960211;28;20092;-78
2021/12/22 03:46:37;;;;;;;38.43;21.60;;;-7.20;99.90;;;;;;4956729;28;20035;-78
2021/12/22 03:49:04;;;;;;;37.63;20.50;;;-7.20;99.90;;;;;;5022072;28;20450;-78
2021/12/22 03:51:30;;;;;;;39.80;20.33;;;-7.20;99.90;;;;;;4956723;28;20035;-77
2021/12/22 03:53:56;;;;;;;35.97;20.17;;;-7.20;99.90;;;;;;4956717;28;20328;-78
2021/12/22 03:56:21;;;;;;;36.27;20.13;;;-7.20;99.90;;;;;;4955784;28;20041;-78
2021/12/22 03:58:47;;;;;;;35.63;21.17;;;-7.10;99.90;;;;;;4955993;28;20026;-78
2021/12/22 04:01:14;;;;;;;37.50;20.40;;;-7.20;99.90;;;;;;4959515;28;20031;-85
2021/12/22 04:03:42;;;;;;;42.97;22.33;;;-7.10;99.90;;;;;;5024264;28;20027;-85
2021/12/22 04:06:07;;;;;;;37.57;20.63;;;-7.10;99.90;;;;;;4959428;28;20370;-78
2021/12/22 04:08:35;;;;;;;37.53;20.50;;;-7.10;99.90;;;;;;4957099;28;20046;-78
2021/12/22 04:11:01;;;;;;;34.63;19.80;;;-7.10;99.90;;;;;;4957278;28;20098;-77
2021/12/22 04:13:27;;;;;;;36.97;19.93;;;-7.10;99.90;;;;;;4957425;28;20137;-78
2021/12/22 04:15:52;;;;;;;37.80;21.73;;;-7.10;99.90;;;;;;4958577;28;20061;-85
2021/12/22 04:18:18;;;;;;;37.77;21.20;;;-7.10;99.90;;;;;;4957178;28;20062;-85
2021/12/22 04:20:44;;;;;;;40.10;22.23;;;-7.10;99.90;;;;;;5041990;28;20100;-85
2021/12/22 04:23:09;;;;;;;46.93;23.67;;;-7.10;99.90;;;;;;4958293;28;20467;-85
2021/12/22 04:25:36;;;;;;;42.77;21.87;;;-7.10;99.90;;;;;;4955830;28;20038;-85
2021/12/22 04:28:07;;;;;;;40.57;21.57;;;-7.10;99.90;;;;;;4959340;28;20034;-84
2021/12/22 04:30:34;;;;;;;39.07;20.97;;;-7.10;99.90;;;;;;4962846;28;20286;-84
2021/12/22 04:33:01;;;;;;;39.70;19.93;;;-7.10;99.90;;;;;;4964494;28;20274;-84
2021/12/22 04:35:27;;;;;;;32.20;18.80;;;-7.10;99.90;;;;;;4957915;28;20917;-85
2021/12/22 04:37:53;;;;;;;39.13;20.27;;;-7.10;99.90;;;;;;4956827;28;20271;-85
2021/12/22 04:40:18;;;;;;;51.17;24.47;;;-7.10;99.90;;;;;;4957873;28;20027;-84
2021/12/22 04:42:44;;;;;;;56.03;22.73;;;-7.10;99.90;;;;;;4961094;28;20031;-84
2021/12/22 04:45:11;;;;;;;48.93;23.33;;;-7.10;99.90;;;;;;4960542;28;20203;-84
2021/12/22 04:47:37;;;;;;;56.03;24.10;;;-7.20;99.90;;;;;;5026208;28;20369;-84
2021/12/22 04:50:09;;;;;;;50.53;25.53;;;-7.20;99.90;;;;;;4960715;28;20110;-84
2021/12/22 04:52:42;;;;;;;48.53;24.47;;;-7.30;99.90;;;;;;4960689;28;20271;-84
2021/12/22 04:55:08;;;;;;;51.00;25.20;;;-7.30;99.90;;;;;;4962378;28;20366;-84
2021/12/22 04:57:34;;;;;;;46.93;24.13;;;-7.30;99.90;;;;;;4967194;28;20105;-84
2021/12/22 05:00:04;;;;;;;44.30;22.07;;;-7.40;99.90;;;;;;4961072;28;20055;-84
2021/12/22 05:02:29;;;;;;;41.37;21.97;;;-7.40;99.90;;;;;;4959274;28;20035;-84
2021/12/22 05:04:57;;;;;;;42.03;21.57;;;-7.40;99.90;;;;;;4959918;28;20038;-84
2021/12/22 05:07:23;;;;;;;38.30;20.20;;;-7.40;99.90;;;;;;4962547;28;20476;-84
2021/12/22 05:09:49;;;;;;;38.80;19.97;;;-7.40;99.90;;;;;;4959476;28;20293;-84
2021/12/22 05:12:14;;;;;;;52.87;20.73;;;-7.40;99.90;;;;;;5026407;28;20031;-84
2021/12/22 05:14:42;;;;;;;38.90;20.47;;;-7.40;99.90;;;;;;4960220;28;20027;-84
2021/12/22 05:17:17;;;;;;;44.53;22.53;;;-7.50;99.90;;;;;;5027177;28;20054;-84
2021/12/22 05:19:42;;;;;;;42.15;22.20;;;-7.50;99.90;;;;;;4960825;28;21441;-84
2021/12/22 05:22:08;;;;;;;41.47;21.63;;;-7.60;99.90;;;;;;4963911;28;20114;-84
2021/12/22 05:24:33;;;;;;;41.43;22.27;;;-7.60;99.90;;;;;;4961719;28;20130;-84
2021/12/22 05:26:59;;;;;;;43.07;22.20;;;-7.70;99.90;;;;;;4959575;28;20088;-84
2021/12/22 05:29:24;;;;;;;42.57;21.60;;;-7.70;99.90;;;;;;5027786;28;20039;-85
2021/12/22 05:31:54;;;;;;;40.37;19.87;;;-7.70;99.90;;;;;;4971387;28;20028;-76
2021/12/22 05:34:19;;;;;;;40.17;21.13;;;-7.70;99.90;;;;;;4982961;28;20575;-77
2021/12/22 05:36:45;;;;;;;44.37;22.37;;;-7.70;99.90;;;;;;4967696;28;20365;-76
2021/12/22 05:39:10;;;;;;;39.47;20.43;;;-7.70;99.90;;;;;;4963140;28;20035;-77
2021/12/22 05:41:36;;;;;;;40.70;21.70;;;-7.70;99.90;;;;;;4966359;28;20473;-77
2021/12/22 05:44:02;;;;;;;38.97;21.20;;;-7.70;99.90;;;;;;4959719;28;20570;-77
2021/12/22 05:46:27;;;;;;;40.43;21.87;;;-7.70;99.90;;;;;;4961962;28;20046;-76
2021/12/22 05:48:53;;;;;;;41.20;21.50;;;-7.70;99.90;;;;;;5026217;28;20387;-77
2021/12/22 05:51:18;;;;;;;39.60;20.57;;;-7.70;99.90;;;;;;4962715;28;20046;-76
2021/12/22 05:53:44;;;;;;;47.40;22.57;;;-7.80;99.90;;;;;;4960804;28;20034;-76
2021/12/22 05:56:12;;;;;;;41.33;21.43;;;-7.80;99.90;;;;;;4962676;28;20030;-77
2021/12/22 05:58:38;;;;;;;42.30;22.47;;;-7.80;99.90;;;;;;4964758;28;20126;-81
2021/12/22 06:01:04;;;;;;;43.97;22.03;;;-7.90;99.90;;;;;;4966910;28;20274;-81
2021/12/22 06:03:29;;;;;;;39.23;20.97;;;-7.90;99.90;;;;;;5033750;28;20037;-81
2021/12/22 06:05:55;;;;;;;43.97;22.07;;;-7.90;99.90;;;;;;4978787;28;20379;-81
2021/12/22 06:08:21;;;;;;;44.80;22.57;;;-8.00;99.90;;;;;;4965758;28;20113;-81
2021/12/22 06:10:46;;;;;;;43.40;22.53;;;-8.00;99.90;;;;;;4962650;28;20034;-81
2021/12/22 06:13:12;;;;;;;45.87;23.80;;;-8.00;99.90;;;;;;4963540;28;20464;-81
2021/12/22 06:15:39;;;;;;;48.17;23.10;;;-8.00;99.90;;;;;;4981381;28;20134;-89
2021/12/22 06:18:06;;;;;;;38.27;22.03;;;-8.00;99.90;;;;;;4966940;28;20041;-80
2021/12/22 06:20:33;;;;;;;46.07;23.97;;;-8.00;99.90;;;;;;4968932;28;20282;-79
2021/12/22 06:22:59;;;;;;;44.50;22.97;;;-8.00;99.90;;;;;;4958454;28;20333;-80
2021/12/22 06:25:25;;;;;;;50.83;25.13;;;-7.90;99.90;;;;;;5027789;28;20274;-80
2021/12/22 06:27:51;;;;;;;46.90;25.37;;;-7.90;99.90;;;;;;4963846;28;20070;-83
2021/12/22 06:30:18;;;;;;;44.23;25.40;;;-7.80;99.90;;;;;;4959238;28;20604;-83
2021/12/22 06:32:44;;;;;;;45.63;24.40;;;-7.80;99.90;;;;;;4959391;28;20631;-83
2021/12/22 06:35:10;;;;;;;44.27;24.17;;;-7.70;99.90;;;;;;4958803;28;20278;-83
2021/12/22 06:37:36;;;;;;;46.23;24.17;;;-7.70;99.90;;;;;;4960512;28;20395;-84
2021/12/22 06:40:04;;;;;;;46.07;23.87;;;-7.60;99.90;;;;;;5025608;28;20743;-83
2021/12/22 06:42:31;;;;;;;44.13;24.50;;;-7.50;99.90;;;;;;4958988;28;20361;-83
2021/12/22 06:44:56;;;;;;;46.47;24.37;;;-7.40;99.90;;;;;;4958057;28;20267;-83
2021/12/22 06:47:22;;;;;;;42.03;23.47;;;-7.30;99.90;;;;;;4960009;28;20282;-83
2021/12/22 06:49:47;;;;;;;42.90;22.37;;;-7.20;99.90;;;;;;4957326;28;20038;-83
2021/12/22 06:52:13;;;;;;;43.93;23.77;;;-7.10;99.90;;;;;;4960651;28;20112;-83
2021/12/22 06:54:38;;;;;;;53.70;30.07;;;-7.00;99.90;;;;;;4956846;28;20091;-83
2021/12/22 06:57:04;;;;;;;48.30;26.00;;;-6.90;99.90;;;;;;4958158;28;20043;-84
2021/12/22 06:59:31;;;;;;;46.40;25.93;;;-6.90;99.90;;;;;;4954675;28;20081;-83
2021/12/22 07:01:57;;;;;;;39.50;23.93;;;-6.80;99.90;;;;;;4954894;28;20042;-83
2021/12/22 07:04:23;;;;;;;42.30;24.47;;;-6.80;99.90;;;;;;4956151;28;20030;-83
2021/12/22 07:06:49;;;;;;;40.27;23.17;;;-6.70;99.90;;;;;;4955170;28;20037;-83
2021/12/22 07:09:15;;;;;;;38.03;21.87;;;-6.60;99.90;;;;;;4952439;28;20042;-83
2021/12/22 07:11:43;;;;;;;42.80;23.90;;;-6.60;99.90;;;;;;4953812;28;20031;-84
2021/12/22 07:14:09;;;;;;;41.13;21.73;;;-6.60;99.90;;;;;;4966082;28;20569;-84
2021/12/22 07:16:35;;;;;;;38.37;21.90;;;-6.50;99.90;;;;;;4955639;28;20051;-83
2021/12/22 07:19:01;;;;;;;44.07;22.77;;;-6.50;99.90;;;;;;4952423;28;20738;-84
2021/12/22 07:21:27;;;;;;;39.17;21.53;;;-6.50;99.90;;;;;;4960013;28;20046;-84
2021/12/22 07:23:53;;;;;;;39.00;21.03;;;-6.40;99.90;;;;;;4957374;28;20775;-84
2021/12/22 07:26:18;;;;;;;37.53;21.37;;;-6.40;99.90;;;;;;4958164;28;20456;-83
2021/12/22 07:28:46;;;;;;;35.30;21.03;;;-6.20;99.90;;;;;;4968418;28;20806;-84
2021/12/22 07:31:15;;;;;;;39.20;22.13;;;-6.20;99.90;;;;;;4966128;28;20066;-83
2021/12/22 07:34:07;;;;;;;36.37;20.80;;;-6.20;99.90;;;;;;4963911;28;20713;-83
2021/12/22 07:36:47;;;;;;;36.07;20.40;;;-6.10;99.90;;;;;;4959645;28;20401;-83
2021/12/22 07:39:13;;;;;;;37.33;19.90;;;-6.20;99.90;;;;;;4958352;28;20036;-83
2021/12/22 07:41:38;;;;;;;42.97;22.27;;;-6.10;99.90;;;;;;4955270;28;20035;-83
2021/12/22 07:44:04;;;;;;;39.57;19.60;;;-6.10;99.90;;;;;;5022935;28;20399;-83
2021/12/22 07:46:29;;;;;;;44.93;22.27;;;-6.20;99.90;;;;;;4954621;28;20067;-83
2021/12/22 07:48:55;;;;;;;44.47;22.77;;;-6.10;99.90;;;;;;5020541;28;20031;-83
2021/12/22 07:51:23;;;;;;;38.60;20.67;;;-6.10;99.90;;;;;;4956864;28;20034;-83
2021/12/22 07:53:48;;;;;;;44.30;22.57;;;-6.00;99.90;;;;;;4954702;28;20031;-83
2021/12/22 07:56:15;;;;;;;47.70;23.63;;;-5.90;99.90;;;;;;4953665;28;20122;-84
2021/12/22 07:58:40;;;;;;;48.73;24.63;;;-5.80;99.90;;;;;;4957875;28;20036;-83
2021/12/22 08:01:06;;;;;;;61.83;30.00;;;-5.70;99.90;;;;;;5021849;28;20089;-84
2021/12/22 08:03:32;;;;;;;54.07;27.83;;;-5.70;99.90;;;;;;4954526;28;20047;-83
2021/12/22 08:05:57;;;;;;;37.17;20.27;;;-5.60;99.90;;;;;;5020603;28;20041;-84
2021/12/22 08:08:23;;;;;;;36.03;20.20;;;-5.50;99.90;;;;;;4953446;28;20039;-84
2021/12/22 08:10:48;;;;;;;42.37;22.27;;;-5.50;99.90;;;;;;4954287;28;20114;-83
2021/12/22 08:13:15;;;;;;;38.90;20.97;;;-5.50;99.90;;;;;;4953673;28;20027;-84
2021/12/22 08:15:42;;;;;;;40.57;20.90;;;-5.50;99.90;;;;;;4959268;28;20058;-83
2021/12/22 08:18:07;;;;;;;43.93;21.53;;;-5.50;99.90;;;;;;5026736;28;20037;-83
2021/12/22 08:20:33;;;;;;;43.70;21.57;;;-5.50;99.90;;;;;;4960468;28;20031;-83
2021/12/22 08:22:58;;;;;;;45.23;22.03;;;-5.40;99.90;;;;;;4960565;28;20084;-83
2021/12/22 08:25:24;;;;;;;47.40;22.93;;;-5.50;99.90;;;;;;4960276;28;20039;-83
2021/12/22 08:27:50;;;;;;;44.37;21.53;;;-5.50;99.90;;;;;;4959363;28;20139;-83
2021/12/22 08:30:15;;;;;;;44.93;23.17;;;-5.40;99.90;;;;;;4960992;28;20035;-84
2021/12/22 08:32:41;;;;;;;40.87;20.20;;;-5.50;99.90;;;;;;4960339;28;20091;-83
2021/12/22 08:35:10;;;;;;;34.00;19.07;;;-5.50;99.90;;;;;;4959074;28;20039;-84
2021/12/22 08:40:22;;;;;;;39.83;19.15;;;-5.40;99.90;;;;;;4961740;28;20037;-83
2021/12/22 08:42:48;;;;;;;31.77;18.27;;;-5.40;99.90;;;;;;4961811;28;20114;-83
2021/12/22 08:45:15;;;;;;;33.87;18.43;;;-5.30;99.90;;;;;;4963853;28;20077;-84
2021/12/22 08:47:41;;;;;;;29.63;17.70;;;-5.30;99.90;;;;;;4967916;28;20191;-83
2021/12/22 08:50:09;;;;;;;31.93;17.60;;;-5.20;99.90;;;;;;4966053;28;20712;-84
2021/12/22 08:52:34;;;;;;;29.90;17.60;;;-5.20;99.90;;;;;;4960584;28;20125;-84
2021/12/22 08:55:00;;;;;;;31.50;17.00;;;-5.10;99.90;;;;;;4960747;28;20636;-84
2021/12/22 08:57:26;;;;;;;31.63;17.53;;;-5.10;99.90;;;;;;5025928;28;20076;-84
2021/12/22 08:59:53;;;;;;;37.23;19.20;;;-5.10;99.90;;;;;;4960753;28;20035;-84
2021/12/22 09:02:19;;;;;;;40.00;20.47;;;-5.10;99.90;;;;;;4961652;28;20460;-84
2021/12/22 09:04:45;;;;;;;34.90;19.47;;;-5.10;99.90;;;;;;4960409;28;20035;-84
2021/12/22 09:07:10;;;;;;;36.40;20.07;;;-5.10;99.90;;;;;;4964453;28;20038;-84
2021/12/22 09:09:38;;;;;;;37.97;19.87;;;-5.10;99.90;;;;;;5026145;28;20031;-84
2021/12/22 09:12:07;;;;;;;40.97;20.10;;;-5.00;99.90;;;;;;4961118;28;20024;-84
2021/12/22 09:14:33;;;;;;;55.30;31.03;;;-5.00;99.90;;;;;;4960191;28;20081;-84
2021/12/22 09:16:59;;;;;;;59.03;33.57;;;-5.00;99.90;;;;;;4959277;28;20088;-84
2021/12/22 09:19:25;;;;;;;40.40;22.03;;;-4.90;99.90;;;;;;4958917;28;20027;-84
2021/12/22 09:21:51;;;;;;;37.40;20.50;;;-4.90;99.90;;;;;;5043726;28;20070;-83
2021/12/22 09:24:17;;;;;;;37.23;20.83;;;-4.70;99.90;;;;;;4961687;28;20901;-83
2021/12/22 09:26:43;;;;;;;37.07;20.73;;;-4.60;99.90;;;;;;4961429;28;20047;-82
2021/12/22 09:29:09;;;;;;;39.83;21.87;;;-4.60;99.90;;;;;;5025710;28;20035;-83
2021/12/22 09:31:35;;;;;;;43.43;23.57;;;-4.60;99.90;;;;;;4955854;28;20031;-83
2021/12/22 09:34:01;;;;;;;47.63;25.57;;;-4.50;99.90;;;;;;4956982;28;20031;-82
2021/12/22 09:36:27;;;;;;;39.97;24.33;;;-4.40;99.90;;;;;;4955802;28;20086;-83
2021/12/22 09:38:52;;;;;;;43.40;23.23;;;-4.20;99.90;;;;;;4958716;28;20031;-82
2021/12/22 09:41:18;;;;;;;46.83;24.87;;;-4.00;99.90;;;;;;4956760;28;20027;-83
2021/12/22 09:43:44;;;;;;;46.40;23.43;;;-3.80;99.90;;;;;;4955059;28;20110;-83
2021/12/22 09:46:13;;;;;;;45.80;24.57;;;-3.60;99.90;;;;;;5023861;28;20032;-83
2021/12/22 09:53:36;;;;;;;40.13;23.03;;;-3.00;99.90;;;;;;4954889;28;20027;-83
2021/12/22 09:56:03;;;;;;;43.93;23.47;;;-2.90;99.90;;;;;;4956591;28;20474;-83
2021/12/22 09:58:28;;;;;;;39.73;24.67;;;-2.80;99.90;;;;;;5023147;28;20035;-83
2021/12/22 10:00:54;;;;;;;45.40;24.90;;;-2.60;99.90;;;;;;4955362;28;20031;-83
2021/12/22 10:03:22;;;;;;;46.33;24.47;;;-2.60;99.90;;;;;;4956289;28;20037;-83
2021/12/22 10:05:48;;;;;;;38.57;22.83;;;-2.60;99.90;;;;;;4957192;28;20062;-83
2021/12/22 10:08:20;;;;;;;36.70;21.63;;;-2.40;99.90;;;;;;4959514;28;20027;-83
2021/12/22 10:11:08;;;;;;;35.03;22.37;;;-2.30;99.90;;;;;;4955740;28;20062;-83
2021/12/22 10:13:35;;;;;;;35.57;21.60;;;-2.10;99.90;;;;;;4959754;28;20978;-83
2021/12/22 10:16:14;;;;;;;33.63;21.57;;;-1.80;99.90;;;;;;4958672;28;20051;-83
2021/12/22 10:18:40;;;;;;;31.33;21.00;;;-1.60;99.90;;;;;;4959894;28;20027;-83
2021/12/22 10:21:18;;;;;;;35.13;21.10;;;-1.60;99.90;;;;;;5023552;28;20537;-83
2021/12/22 10:23:49;;;;;;;35.10;21.50;;;-1.50;99.90;;;;;;4957316;28;20088;-83
2021/12/22 10:26:21;;;;;;;33.40;20.90;;;-1.50;99.90;;;;;;5022104;28;20054;-77
2021/12/22 10:28:53;;;;;;;34.67;21.53;;;-1.50;99.90;;;;;;4956689;28;20116;-77
2021/12/22 10:31:25;;;;;;;35.13;20.43;;;-1.60;99.90;;;;;;5021092;28;20114;-77
2021/12/22 10:33:51;;;;;;;30.97;20.87;;;-1.50;99.90;;;;;;4956252;28;20093;-77
2021/12/22 10:36:20;;;;;;;32.50;21.87;;;-1.50;99.90;;;;;;4956423;28;20441;-77
2021/12/22 10:38:55;;;;;;;40.47;22.63;;;-1.50;99.90;;;;;;4955169;28;20035;-77
2021/12/22 10:41:26;;;;;;;;;;;-1.50;99.90;;;;;;4956216;28;20042;-77
2021/12/22 10:43:52;;;;;;;38.53;24.17;;;-1.60;99.90;;;;;;4956475;28;19910;-77
2021/12/22 10:46:31;;;;;;;36.27;22.10;;;-1.40;99.90;;;;;;4958017;28;20027;-77
2021/12/22 10:49:17;;;;;;;33.50;20.80;;;-1.30;99.90;;;;;;4956814;28;20081;-77
2021/12/22 10:52:03;;;;;;;34.40;20.73;;;-1.50;99.90;;;;;;4956890;28;20023;-78
2021/12/22 10:54:30;;;;;;;30.77;20.95;;;-1.60;99.90;;;;;;4960391;28;20042;-78
2021/12/22 10:56:58;;;;;;;34.43;21.50;;;-1.70;99.90;;;;;;4961350;28;20027;-77
2021/12/22 10:59:24;;;;;;;34.10;21.40;;;-1.80;99.90;;;;;;4961157;28;20030;-77
2021/12/22 11:01:53;;;;;;;33.70;21.47;;;-1.90;99.90;;;;;;4960704;28;20027;-78
2021/12/22 11:04:26;;;;;;;33.30;20.90;;;-2.00;99.90;;;;;;4960943;28;20075;-77
2021/12/22 11:06:54;;;;;;;31.93;20.53;;;-2.00;99.90;;;;;;4959985;28;20037;-77
2021/12/22 11:09:22;;;;;;;31.10;20.67;;;-2.10;99.90;;;;;;4959623;28;20035;-77
2021/12/22 11:11:54;;;;;;;33.73;21.43;;;-2.10;99.90;;;;;;5026489;28;20055;-77
2021/12/22 11:14:22;;;;;;;37.93;23.30;;;-2.10;99.90;;;;;;5027305;28;20035;-77
2021/12/22 11:16:51;;;;;;;35.20;21.93;;;-2.20;99.90;;;;;;4966581;28;20109;-77
2021/12/22 11:19:17;;;;;;;35.03;23.03;;;-2.20;99.90;;;;;;4971966;28;20027;-77
2021/12/22 11:22:09;;;;;;;33.97;22.00;;;-2.20;99.90;;;;;;4963670;28;20479;-77
2021/12/22 11:24:54;;;;;;;32.70;21.00;;;-2.30;99.90;;;;;;4958824;28;20045;-77
2021/12/22 11:27:25;;;;;;;35.55;22.33;;;-2.30;99.90;;;;;;4962216;28;20093;-77
2021/12/22 11:29:54;;;;;;;39.37;22.83;;;-2.30;99.90;;;;;;4958430;28;20413;-77
2021/12/22 11:32:29;;;;;;;35.73;22.77;;;-2.20;99.90;;;;;;4958442;28;20495;-77
2021/12/22 11:35:02;;;;;;;37.45;22.42;;;-2.20;99.90;;;;;;4961395;28;20023;-77
2021/12/22 11:37:28;;;;;;;45.77;25.40;;;-2.10;99.90;;;;;;4971401;28;20047;-77
2021/12/22 11:39:55;;;;;;;33.87;20.33;;;-2.00;99.90;;;;;;4981850;28;20380;-77
2021/12/22 11:42:25;;;;;;;33.03;20.27;;;-1.60;99.90;;;;;;4959715;28;20143;-80
2021/12/22 11:44:58;;;;;;;35.70;20.43;;;-1.50;99.90;;;;;;4957194;28;20063;-80
2021/12/22 11:47:25;;;;;;;35.83;21.97;;;-1.50;99.90;;;;;;4959487;28;20031;-80
2021/12/22 11:49:54;;;;;;;31.07;20.40;;;-1.20;99.90;;;;;;4975037;28;20244;-80
2021/12/22 11:52:38;;;;;;;37.47;21.93;;;-1.10;99.90;;;;;;4959243;28;20872;-80
2021/12/22 11:55:39;;;;;;;35.53;21.77;;;-1.00;99.90;;;;;;4960549;28;20015;-80
2021/12/22 11:58:17;;;;;;;33.90;22.00;;;-0.80;99.90;;;;;;4958323;28;20042;-80
2021/12/22 12:01:08;;;;;;;31.93;18.70;;;-0.80;99.90;;;;;;4958350;28;20538;-80
2021/12/22 12:03:44;;;;;;;28.67;18.97;;;-0.30;99.90;;;;;;4965098;28;20088;-80
2021/12/22 12:06:14;;;;;;;32.23;19.27;;;0.10;99.90;;;;;;5031438;28;20076;-80
2021/12/22 12:08:47;;;;;;;34.60;20.73;;;0.20;99.90;;;;;;4957531;28;20038;-80
2021/12/22 12:11:17;;;;;;;42.20;23.43;;;0.40;99.90;;;;;;4958990;28;20023;-80
2021/12/22 12:13:55;;;;;;;31.43;19.37;;;0.60;99.90;;;;;;4961468;28;20357;-80
2021/12/22 12:22:23;;;;;;;70.13;40.80;;;0.70;99.90;;;;;;4958151;28;20141;-80
2021/12/22 12:24:55;;;;;;;33.63;21.17;;;0.50;99.90;;;;;;4959932;28;20484;-80
2021/12/22 12:27:52;;;;;;;36.47;21.20;;;0.50;99.90;;;;;;4957776;28;20582;-80
2021/12/22 12:30:32;;;;;;;30.37;18.93;;;0.50;99.90;;;;;;5020550;28;20031;-80
2021/12/22 12:33:00;;;;;;;27.30;17.57;;;0.40;99.90;;;;;;5022535;28;20100;-80
2021/12/22 12:35:28;;;;;;;27.33;17.47;;;0.50;99.90;;;;;;4956328;28;20145;-80
2021/12/22 12:38:30;;;;;;;30.93;18.83;;;0.70;99.90;;;;;;4955098;28;20087;-80
2021/12/22 12:40:58;;;;;;;27.13;17.53;;;0.80;99.90;;;;;;5024367;28;20096;-80
2021/12/22 12:43:42;;;;;;;25.07;16.77;;;0.80;99.90;;;;;;5022329;28;20737;-80
2021/12/22 12:46:20;;;;;;;30.77;20.00;;;0.70;99.90;;;;;;4953130;28;20035;-80
2021/12/22 12:48:55;;;;;;;26.13;16.67;;;0.50;99.90;;;;;;4955298;28;20829;-79
2021/12/22 12:51:24;;;;;;;28.58;17.52;;;0.30;99.90;;;;;;5019457;28;20114;-80
2021/12/22 12:53:51;;;;;;;28.13;18.30;;;0.30;99.90;;;;;;4956185;28;20049;-80
2021/12/22 12:56:19;;;;;;;32.50;21.20;;;0.20;99.90;;;;;;4956236;28;20028;-80